Terminal Aerodrome Forecast
Issued by NWS Bismarck, ND

Home | Current Version | Previous Version | Graphics & Text | Print | Product List | Glossary On
Versions: 1 2 3 4 5 6 7 8 9 10 11 12 13 14 15 16 17
000
FTUS43 KBIS 211735
TAFISN
TAF
KISN 211735Z 2118/2218 31008KT P6SM OVC110
     FM220000 33007KT P6SM FEW090 SCT200
     FM220900 01007KT P6SM VCSH BKN110 BKN130
     FM221200 02009KT P6SM BKN140=

USA.gov is the U.S. government's official web portal to all federal, state and local government web resources and services.